createdAt,value
2017-02-01T00:00:09.395Z,25.7
2017-02-01T00:01:09.353Z,25.89
2017-02-01T00:02:09.334Z,26.75
2017-02-01T00:03:08.919Z,27.4
2017-02-01T00:04:09.306Z,27.87
2017-02-01T00:05:09.280Z,28.16
2017-02-01T00:06:09.265Z,28.44
2017-02-01T00:07:09.253Z,30.24
2017-02-01T00:08:09.228Z,30.99
2017-02-01T00:09:09.215Z,30.99
2017-02-01T00:10:09.193Z,30.99
2017-02-01T00:11:09.183Z,31.85
2017-02-01T00:12:08.764Z,31.47
2017-02-01T00:13:09.142Z,32.23
2017-02-01T00:14:09.133Z,32.51
2017-02-01T00:15:09.108Z,32.6
2017-02-01T00:16:08.691Z,32.51
2017-02-01T00:17:09.078Z,32.7
2017-02-01T00:18:09.063Z,32.89
2017-02-01T00:19:09.050Z,33.64
2017-02-01T00:20:09.027Z,34.4
2017-02-01T00:21:09.008Z,34.02
2017-02-01T00:22:08.993Z,35.06
2017-02-01T00:23:08.971Z,35.44
2017-02-01T00:24:08.951Z,35.35
2017-02-01T00:25:08.933Z,35.35
2017-02-01T00:26:08.918Z,35.35
2017-02-01T00:27:08.902Z,36.19
2017-02-01T00:28:08.485Z,36.19
2017-02-01T00:29:08.866Z,36.47
2017-02-01T00:30:08.846Z,36.57
2017-02-01T00:31:08.834Z,36.85
2017-02-01T00:32:08.814Z,36.76
2017-02-01T00:33:08.800Z,36.57
2017-02-01T00:34:08.784Z,36.47
2017-02-01T00:35:08.759Z,35.82
2017-02-01T00:36:08.346Z,35.63
2017-02-01T00:37:08.726Z,35.35
2017-02-01T00:38:08.313Z,35.63
2017-02-01T00:39:08.695Z,35.53
2017-02-01T00:40:08.674Z,35.16
2017-02-01T00:41:08.658Z,34.68
2017-02-01T00:42:08.641Z,34.68
2017-02-01T00:43:08.623Z,36
2017-02-01T00:44:08.205Z,36.76
2017-02-01T00:45:08.590Z,36.85
2017-02-01T00:46:08.570Z,36.76
2017-02-01T00:47:08.553Z,36.19
2017-02-01T00:48:08.133Z,36.1
2017-02-01T00:49:08.520Z,35.82
2017-02-01T00:50:08.502Z,35.91
2017-02-01T00:51:08.479Z,35.91
2017-02-01T00:52:08.065Z,35.91
2017-02-01T00:53:08.450Z,36.29
2017-02-01T00:54:08.429Z,36.57
2017-02-01T00:55:08.412Z,36.66
2017-02-01T00:56:08.399Z,36.76
2017-02-01T00:57:08.378Z,36.85
2017-02-01T00:58:08.360Z,36.76
2017-02-01T00:59:08.350Z,37.52
2017-02-01T01:00:08.325Z,37.9
2017-02-01T01:01:08.306Z,38.56
2017-02-01T01:02:08.290Z,38.56
2017-02-01T01:03:08.271Z,38.46
2017-02-01T01:04:08.262Z,38.46
2017-02-01T01:05:08.243Z,39.03
2017-02-01T01:06:08.218Z,39.31
2017-02-01T01:07:08.203Z,39.59
2017-02-01T01:08:08.184Z,39.59
2017-02-01T01:09:08.175Z,39.78
2017-02-01T01:10:07.752Z,39.97
2017-02-01T01:11:08.136Z,40.73
2017-02-01T01:12:08.118Z,40.92
2017-02-01T01:13:08.102Z,41.58
2017-02-01T01:14:07.681Z,42.43
2017-02-01T01:15:08.062Z,42.52
2017-02-01T01:16:08.047Z,42.9
2017-02-01T01:17:08.031Z,42.9
2017-02-01T01:18:08.010Z,43.38
2017-02-01T01:19:07.993Z,43.47
2017-02-01T01:20:07.977Z,43.28
2017-02-01T01:21:07.956Z,43.95
2017-02-01T01:22:07.937Z,43.54
2017-02-01T01:23:07.919Z,43.64
2017-02-01T01:24:07.903Z,42.79
2017-02-01T01:25:07.887Z,42.41
2017-02-01T01:26:07.867Z,41.66
2017-02-01T01:27:07.851Z,41.56
2017-02-01T01:28:07.833Z,41.18
2017-02-01T01:29:07.814Z,40.9
2017-02-01T01:30:07.797Z,40.42
2017-02-01T01:31:07.807Z,39.95
2017-02-01T01:32:07.363Z,40.05
2017-02-01T01:33:07.743Z,39.95
2017-02-01T01:34:07.330Z,40.26
2017-02-01T01:35:07.709Z,41.02
2017-02-01T01:36:07.292Z,41.02
2017-02-01T01:37:07.677Z,41.3
2017-02-01T01:38:07.656Z,41.56
2017-02-01T01:39:07.639Z,41.66
2017-02-01T01:40:07.224Z,41.56
2017-02-01T01:41:07.218Z,41.67
2017-02-01T01:42:07.593Z,40.99
2017-02-01T01:43:07.174Z,40.61
2017-02-01T01:44:07.548Z,39.86
2017-02-01T01:45:07.533Z,39.11
2017-02-01T01:46:07.116Z,39.01
2017-02-01T01:47:07.496Z,38.54
2017-02-01T01:48:07.479Z,38.07
2017-02-01T01:49:07.461Z,37.59
2017-02-01T01:50:07.444Z,37.21
2017-02-01T01:51:07.425Z,37.02
2017-02-01T01:52:07.410Z,37.02
2017-02-01T01:53:07.390Z,37.12
2017-02-01T01:54:07.375Z,36.36
2017-02-01T01:55:07.352Z,35.8
2017-02-01T01:56:06.940Z,35.23
2017-02-01T01:57:07.318Z,34.47
2017-02-01T01:58:06.906Z,33.53
2017-02-01T01:59:07.287Z,33.25
2017-02-01T02:00:07.272Z,32.87
2017-02-01T02:01:07.254Z,32.02
2017-02-01T02:02:07.233Z,31.55
2017-02-01T02:03:07.218Z,30.69
2017-02-01T02:04:07.265Z,30.13
2017-02-01T02:05:07.179Z,29.47
2017-02-01T02:06:07.165Z,28.62
2017-02-01T02:07:07.146Z,28.62
2017-02-01T02:08:07.123Z,28.62
2017-02-01T02:09:06.709Z,27.67
2017-02-01T02:10:06.694Z,26.92
2017-02-01T02:11:07.074Z,26.92
2017-02-01T02:12:07.061Z,25.88
2017-02-01T02:13:07.040Z,25.88
2017-02-01T02:14:07.021Z,25.79
2017-02-01T02:15:07.003Z,25.22
2017-02-01T02:16:06.987Z,24.93
2017-02-01T02:17:06.965Z,24.55
2017-02-01T02:18:06.948Z,24.08
2017-02-01T02:19:06.931Z,24.08
2017-02-01T02:20:06.943Z,24.18
2017-02-01T02:21:06.897Z,23.99
2017-02-01T02:22:06.878Z,24.18
2017-02-01T02:23:06.859Z,24.18
2017-02-01T02:24:06.444Z,23.71
2017-02-01T02:25:06.826Z,23.61
2017-02-01T02:26:06.807Z,23.24
2017-02-01T02:27:06.792Z,23.14
2017-02-01T02:28:06.773Z,22.86
2017-02-01T02:29:06.758Z,23.61
2017-02-01T02:30:06.735Z,23.24
2017-02-01T02:31:06.728Z,22.95
2017-02-01T02:32:06.701Z,23.14
2017-02-01T02:33:06.288Z,22.57
2017-02-01T02:34:06.270Z,22.48
2017-02-01T02:35:06.676Z,23.05
2017-02-01T02:36:06.629Z,23.14
2017-02-01T02:37:06.612Z,23.24
2017-02-01T02:38:06.197Z,23.71
2017-02-01T02:39:06.177Z,23.71
2017-02-01T02:40:06.559Z,24.08
2017-02-01T02:41:06.545Z,24.1
2017-02-01T02:42:06.521Z,23.99
2017-02-01T02:43:06.532Z,23.9
2017-02-01T02:44:06.488Z,24.01
2017-02-01T02:45:06.534Z,24.08
2017-02-01T02:46:06.455Z,24.57
2017-02-01T02:47:06.435Z,25.03
2017-02-01T02:48:06.418Z,24.93
2017-02-01T02:49:06.401Z,25.31
2017-02-01T02:50:06.383Z,25.5
2017-02-01T02:51:06.365Z,25.79
2017-02-01T02:52:06.345Z,25.5
2017-02-01T02:53:06.329Z,24.84
2017-02-01T02:54:06.313Z,24.93
2017-02-01T02:55:06.299Z,25.03
2017-02-01T02:56:06.276Z,24.84
2017-02-01T02:57:06.260Z,25.31
2017-02-01T02:58:06.244Z,24.84
2017-02-01T02:59:06.227Z,25.03
2017-02-01T03:00:06.210Z,25.03
2017-02-01T03:01:06.192Z,24.84
2017-02-01T03:02:06.030Z,25.03
2017-02-01T03:03:06.158Z,24.37
2017-02-01T03:04:06.137Z,24.08
2017-02-01T03:05:06.122Z,24.66
2017-02-01T03:06:06.104Z,24.93
2017-02-01T03:07:06.088Z,27.01
2017-02-01T03:08:06.068Z,26.64
2017-02-01T03:09:06.052Z,25.69
2017-02-01T03:10:06.037Z,25.41
2017-02-01T03:11:06.016Z,25.12
2017-02-01T03:12:05.997Z,24.84
2017-02-01T03:13:05.980Z,24.74
2017-02-01T03:14:05.962Z,24.84
2017-02-01T03:15:05.947Z,24.65
2017-02-01T03:16:05.929Z,24.18
2017-02-01T03:17:05.910Z,23.9
2017-02-01T03:18:05.896Z,24.18
2017-02-01T03:19:05.876Z,23.9
2017-02-01T03:20:05.461Z,23.14
2017-02-01T03:21:05.840Z,23.43
2017-02-01T03:22:05.824Z,24.01
2017-02-01T03:23:05.806Z,23.91
2017-02-01T03:24:05.787Z,24.37
2017-02-01T03:25:05.777Z,24.1
2017-02-01T03:26:05.751Z,24.01
2017-02-01T03:27:05.735Z,24.29
2017-02-01T03:28:05.720Z,24.85
2017-02-01T03:29:05.703Z,25.13
2017-02-01T03:30:05.689Z,25.89
2017-02-01T03:31:05.670Z,25.89
2017-02-01T03:32:05.650Z,26.75
2017-02-01T03:33:05.635Z,27.5
2017-02-01T03:34:05.614Z,27.59
2017-02-01T03:35:05.597Z,27.78
2017-02-01T03:36:05.580Z,28.16
2017-02-01T03:37:05.573Z,28.54
2017-02-01T03:38:05.550Z,28.73
2017-02-01T03:39:05.541Z,29.11
2017-02-01T03:40:05.513Z,29.77
2017-02-01T03:41:05.492Z,30.15
2017-02-01T03:42:05.476Z,30.05
2017-02-01T03:43:05.459Z,31.09
2017-02-01T03:44:05.440Z,31.37
2017-02-01T03:45:05.424Z,31.85
2017-02-01T03:46:05.407Z,31.75
2017-02-01T03:47:05.390Z,31.85
2017-02-01T03:48:05.375Z,31.85
2017-02-01T03:49:05.354Z,31.56
2017-02-01T03:50:05.339Z,30.71
2017-02-01T03:51:05.327Z,30.9
2017-02-01T03:52:05.303Z,31.66
2017-02-01T03:53:05.284Z,31.85
2017-02-01T03:54:05.270Z,32.7
2017-02-01T03:55:05.253Z,32.98
2017-02-01T03:56:05.233Z,33.36
2017-02-01T03:57:05.218Z,33.64
2017-02-01T03:58:05.200Z,34.21
2017-02-01T03:59:05.183Z,34.21
2017-02-01T04:00:05.166Z,34.97
2017-02-01T04:01:05.148Z,35.25
2017-02-01T04:02:05.132Z,35.35
2017-02-01T04:03:05.117Z,35.91
2017-02-01T04:04:05.098Z,35.72
2017-02-01T04:05:04.682Z,36.47
2017-02-01T04:06:05.065Z,36.85
2017-02-01T04:07:05.048Z,37.04
2017-02-01T04:08:05.029Z,37.23
2017-02-01T04:09:05.011Z,37.52
2017-02-01T04:10:04.998Z,37.42
2017-02-01T04:11:04.975Z,37.9
2017-02-01T04:12:04.957Z,38.56
2017-02-01T04:13:04.545Z,38.84
2017-02-01T04:14:04.925Z,39.5
2017-02-01T04:15:04.904Z,39.78
2017-02-01T04:16:04.889Z,39.31
2017-02-01T04:17:04.877Z,39.03
2017-02-01T04:18:04.855Z,38.65
2017-02-01T04:19:04.849Z,38.84
2017-02-01T04:20:04.819Z,38.56
2017-02-01T04:21:04.805Z,38.46
2017-02-01T04:22:04.787Z,38.37
2017-02-01T04:23:04.770Z,38.65
2017-02-01T04:24:04.751Z,39.12
2017-02-01T04:25:04.734Z,39.12
2017-02-01T04:26:04.714Z,39.03
2017-02-01T04:27:04.699Z,39.12
2017-02-01T04:28:04.712Z,39.5
2017-02-01T04:29:04.662Z,39.78
2017-02-01T04:30:04.650Z,39.4
2017-02-01T04:31:04.632Z,39.69
2017-02-01T04:32:04.615Z,40.26
2017-02-01T04:33:04.597Z,39.5
2017-02-01T04:34:04.585Z,39.69
2017-02-01T04:35:04.563Z,39.59
2017-02-01T04:36:04.542Z,39.22
2017-02-01T04:37:04.530Z,39.5
2017-02-01T04:38:04.510Z,39.5
2017-02-01T04:39:04.095Z,39.5
2017-02-01T04:40:04.476Z,39.69
2017-02-01T04:41:04.459Z,39.59
2017-02-01T04:42:04.439Z,39.12
2017-02-01T04:43:04.423Z,38.75
2017-02-01T04:44:04.405Z,38.93
2017-02-01T04:45:04.388Z,38.93
2017-02-01T04:46:03.979Z,39.12
2017-02-01T04:47:03.955Z,39.5
2017-02-01T04:48:04.339Z,39.69
2017-02-01T04:49:04.319Z,39.88
2017-02-01T04:50:04.309Z,40.35
2017-02-01T04:51:04.287Z,40.35
2017-02-01T04:52:04.269Z,40.07
2017-02-01T04:53:04.252Z,40.64
2017-02-01T04:54:04.233Z,40.35
2017-02-01T04:55:04.223Z,40.92
2017-02-01T04:56:04.200Z,41.58
2017-02-01T04:57:04.187Z,42.34
2017-02-01T04:58:04.166Z,42.05
2017-02-01T04:59:04.150Z,42.43
2017-02-01T05:00:04.131Z,42.62
2017-02-01T05:01:04.120Z,42.71
2017-02-01T05:02:04.095Z,42.52
2017-02-01T05:03:04.079Z,43
2017-02-01T05:04:04.064Z,43.28
2017-02-01T05:05:04.043Z,43.57
2017-02-01T05:06:04.029Z,43.28
2017-02-01T05:07:04.011Z,44.23
2017-02-01T05:08:04.000Z,44.42
2017-02-01T05:09:03.979Z,44.32
2017-02-01T05:10:03.961Z,44.32
2017-02-01T05:11:03.993Z,44.7
2017-02-01T05:12:03.927Z,44.7
2017-02-01T05:13:03.909Z,44.98
2017-02-01T05:14:03.891Z,44.51
2017-02-01T05:15:03.876Z,44.32
2017-02-01T05:16:03.856Z,44.32
2017-02-01T05:17:03.836Z,43.95
2017-02-01T05:18:03.823Z,44.51
2017-02-01T05:19:03.804Z,44.7
2017-02-01T05:20:03.789Z,44.23
2017-02-01T05:21:03.371Z,44.23
2017-02-01T05:22:03.753Z,44.7
2017-02-01T05:23:03.738Z,44.32
2017-02-01T05:24:03.721Z,43.76
2017-02-01T05:25:03.704Z,43.09
2017-02-01T05:26:03.686Z,42.52
2017-02-01T05:27:03.668Z,42.34
2017-02-01T05:28:03.649Z,42.24
2017-02-01T05:29:03.630Z,42.15
2017-02-01T05:30:03.620Z,41.67
2017-02-01T05:31:03.599Z,41.11
2017-02-01T05:32:03.579Z,41.2
2017-02-01T05:33:03.565Z,41.2
2017-02-01T05:34:03.546Z,40.73
2017-02-01T05:35:03.132Z,41.39
2017-02-01T05:36:03.513Z,40.83
2017-02-01T05:37:03.499Z,41.2
2017-02-01T05:38:03.478Z,41.11
2017-02-01T05:39:03.463Z,41.11
2017-02-01T05:40:03.457Z,40.73
2017-02-01T05:41:03.427Z,40.45
2017-02-01T05:42:03.410Z,40.35
2017-02-01T05:43:03.391Z,40.07
2017-02-01T05:44:03.374Z,40.54
2017-02-01T05:45:03.355Z,40.45
2017-02-01T05:46:03.341Z,39.78
2017-02-01T05:47:03.328Z,40.16
2017-02-01T05:48:03.308Z,40.07
2017-02-01T05:49:03.291Z,39.5
2017-02-01T05:50:03.273Z,38.93
2017-02-01T05:51:03.258Z,39.03
2017-02-01T05:52:03.234Z,39.12
2017-02-01T05:53:03.219Z,39.22
2017-02-01T05:54:03.203Z,38.93
2017-02-01T05:55:03.185Z,39.4
2017-02-01T05:56:03.167Z,39.4
2017-02-01T05:57:03.151Z,39.59
2017-02-01T05:58:03.134Z,39.78
2017-02-01T05:59:03.119Z,40.07
2017-02-01T06:00:03.098Z,39.78
2017-02-01T06:01:03.086Z,39.78
2017-02-01T06:02:03.067Z,40.07
2017-02-01T06:03:03.046Z,40.54
2017-02-01T06:04:03.030Z,39.88
2017-02-01T06:05:03.015Z,39.88
2017-02-01T06:06:02.996Z,41.11
2017-02-01T06:07:02.980Z,40.92
2017-02-01T06:08:02.961Z,41.02
2017-02-01T06:09:02.946Z,40.16
2017-02-01T06:10:02.939Z,40.45
2017-02-01T06:11:02.513Z,40.54
2017-02-01T06:12:02.895Z,39.69
2017-02-01T06:13:02.875Z,40.35
2017-02-01T06:14:02.858Z,39.69
2017-02-01T06:15:02.844Z,40.07
2017-02-01T06:16:02.828Z,40.26
2017-02-01T06:17:02.806Z,39.97
2017-02-01T06:18:02.789Z,39.78
2017-02-01T06:19:02.774Z,39.78
2017-02-01T06:20:02.757Z,39.4
2017-02-01T06:21:02.738Z,39.31
2017-02-01T06:22:02.719Z,39.31
2017-02-01T06:23:02.704Z,39.5
2017-02-01T06:24:02.685Z,39.22
2017-02-01T06:25:02.665Z,38.75
2017-02-01T06:26:02.653Z,38.46
2017-02-01T06:27:02.632Z,38.37
2017-02-01T06:28:02.617Z,38.37
2017-02-01T06:29:02.610Z,38.18
2017-02-01T06:30:02.581Z,38.09
2017-02-01T06:31:02.570Z,37.9
2017-02-01T06:32:02.576Z,38.37
2017-02-01T06:33:02.531Z,38.28
2017-02-01T06:34:02.514Z,37.99
2017-02-01T06:35:02.496Z,37.9
2017-02-01T06:36:02.479Z,38.09
2017-02-01T06:37:02.459Z,37.52
2017-02-01T06:38:02.442Z,37.23
2017-02-01T06:39:02.424Z,36.95
2017-02-01T06:40:02.408Z,36.57
2017-02-01T06:41:02.390Z,36.66
2017-02-01T06:42:02.375Z,36.29
2017-02-01T06:43:02.355Z,35.91
2017-02-01T06:44:02.344Z,35.82
2017-02-01T06:45:02.322Z,36
2017-02-01T06:46:02.304Z,35.63
2017-02-01T06:47:02.286Z,35.53
2017-02-01T06:48:02.270Z,35.91
2017-02-01T06:49:02.253Z,35.91
2017-02-01T06:50:02.235Z,35.82
2017-02-01T06:51:02.217Z,36.1
2017-02-01T06:52:02.202Z,36
2017-02-01T06:53:02.183Z,36.19
2017-02-01T06:54:02.165Z,36.1
2017-02-01T06:55:02.150Z,35.91
2017-02-01T06:56:02.130Z,35.63
2017-02-01T06:57:02.116Z,35.25
2017-02-01T06:58:02.093Z,35.35
2017-02-01T06:59:02.080Z,35.06
2017-02-01T07:00:02.063Z,35.25
2017-02-01T07:01:02.052Z,35.16
2017-02-01T07:02:02.032Z,35.25
2017-02-01T07:03:02.033Z,35.25
2017-02-01T07:04:01.997Z,35.06
2017-02-01T07:05:01.984Z,34.97
2017-02-01T07:06:01.957Z,34.97
2017-02-01T07:07:01.940Z,35.16
2017-02-01T07:08:01.922Z,35.06
2017-02-01T07:09:01.907Z,35.16
2017-02-01T07:10:01.888Z,35.25
2017-02-01T07:11:01.871Z,35.16
2017-02-01T07:12:01.464Z,35.06
2017-02-01T07:13:01.834Z,34.68
2017-02-01T07:14:01.821Z,34.87
2017-02-01T07:15:01.802Z,34.02
2017-02-01T07:16:01.787Z,34.59
2017-02-01T07:17:01.767Z,35.53
2017-02-01T07:18:01.750Z,36.19
2017-02-01T07:19:01.732Z,36.85
2017-02-01T07:20:01.718Z,37.52
2017-02-01T07:21:01.697Z,37.33
2017-02-01T07:22:01.684Z,37.8
2017-02-01T07:23:01.667Z,38.37
2017-02-01T07:24:01.645Z,38.46
2017-02-01T07:25:01.644Z,38.65
2017-02-01T07:26:01.624Z,39.03
2017-02-01T07:27:01.593Z,39.88
2017-02-01T07:28:01.577Z,39.88
2017-02-01T07:29:01.562Z,40.45
2017-02-01T07:30:01.546Z,40.92
2017-02-01T07:31:01.525Z,41.02
2017-02-01T07:32:01.508Z,41.2
2017-02-01T07:33:01.492Z,41.02
2017-02-01T07:34:01.473Z,41.58
2017-02-01T07:35:01.454Z,41.96
2017-02-01T07:36:01.443Z,42.34
2017-02-01T07:37:01.420Z,43
2017-02-01T07:38:01.401Z,43.57
2017-02-01T07:39:01.388Z,44.23
2017-02-01T07:40:01.375Z,44.6
2017-02-01T07:41:00.954Z,43.95
2017-02-01T07:42:01.335Z,44.51
2017-02-01T07:43:01.318Z,44.89
2017-02-01T07:44:01.303Z,45.64
2017-02-01T07:45:01.290Z,46.02
2017-02-01T07:46:01.268Z,46.5
2017-02-01T07:47:01.250Z,47.25
2017-02-01T07:48:01.231Z,47.44
2017-02-01T07:49:01.220Z,48.48
2017-02-01T07:50:01.198Z,48.67
2017-02-01T07:51:01.180Z,48.67
2017-02-01T07:52:01.166Z,49.9
2017-02-01T07:53:01.147Z,49.8
2017-02-01T07:54:01.132Z,49.62
2017-02-01T07:55:01.115Z,49.71
2017-02-01T07:56:01.099Z,49.99
2017-02-01T07:57:01.082Z,50.18
2017-02-01T07:58:01.065Z,50.46
2017-02-01T07:59:01.047Z,50.4
2017-02-01T08:00:00.633Z,50.3
2017-02-01T08:01:01.013Z,50.94
2017-02-01T08:02:01.132Z,52.07
2017-02-01T08:03:00.979Z,53.23
2017-02-01T08:04:00.961Z,54.08
2017-02-01T08:05:00.948Z,54.18
2017-02-01T08:06:00.927Z,54.74
2017-02-01T08:07:00.912Z,54.27
2017-02-01T08:08:00.896Z,54.18
2017-02-01T08:09:00.882Z,54.37
2017-02-01T08:10:00.865Z,54.37
2017-02-01T08:11:00.451Z,54.84
2017-02-01T08:12:00.828Z,55.88
2017-02-01T08:13:00.842Z,56.92
2017-02-01T08:14:00.795Z,58.25
2017-02-01T08:15:00.781Z,60.14
2017-02-01T08:16:00.765Z,61.74
2017-02-01T08:17:00.747Z,63.2
2017-02-01T08:18:00.752Z,63.85
2017-02-01T08:19:00.715Z,65.37
2017-02-01T08:20:00.700Z,66.6
2017-02-01T08:21:00.684Z,68.02
2017-02-01T08:22:00.669Z,68.59
2017-02-01T08:23:00.650Z,69.82
2017-02-01T08:24:00.637Z,70.67
2017-02-01T08:25:00.625Z,72.66
2017-02-01T08:26:00.603Z,74.45
2017-02-01T08:27:00.588Z,75.96
2017-02-01T08:28:00.570Z,77.2
2017-02-01T08:29:00.555Z,79.18
2017-02-01T08:30:00.535Z,83.06
2017-02-01T08:31:00.521Z,86.37
2017-02-01T08:32:00.507Z,87.6
2017-02-01T08:33:00.491Z,87.7
2017-02-01T08:34:00.474Z,87.32
2017-02-01T08:35:00.059Z,88.45
2017-02-01T08:36:00.443Z,90.53
2017-02-01T08:37:00.432Z,91.01
2017-02-01T08:38:00.412Z,90.82
2017-02-01T08:39:00.396Z,90.63
2017-02-01T08:40:00.380Z,91.48
2017-02-01T08:41:00.361Z,91.96
2017-02-01T08:42:00.346Z,92.99
2017-02-01T08:43:00.336Z,92.71
2017-02-01T08:44:00.314Z,95.36
2017-02-01T08:45:00.301Z,94.23
2017-02-01T08:46:00.302Z,94.04
2017-02-01T08:47:00.271Z,94.89
2017-02-01T08:48:00.252Z,96.12
2017-02-01T08:49:00.242Z,97.11
2017-02-01T08:50:00.222Z,98.15
2017-02-01T08:51:00.204Z,97.58
2017-02-01T08:52:00.195Z,99.99
2017-02-01T08:53:00.176Z,99.99
2017-02-01T08:54:00.167Z,99.99
2017-02-01T08:55:00.149Z,99.99
2017-02-01T08:56:00.127Z,99.99
2017-02-01T08:57:00.138Z,99.99
2017-02-01T08:58:00.097Z,99.99
2017-02-01T08:59:00.087Z,99.99
2017-02-01T09:00:00.067Z,99.99
2017-02-01T09:01:00.050Z,99.99
2017-02-01T09:02:00.039Z,99.99
2017-02-01T09:03:00.045Z,99.99
2017-02-01T09:03:59.608Z,99.99
2017-02-01T09:04:59.996Z,99.99
2017-02-01T09:05:59.972Z,99.99
2017-02-01T09:06:59.957Z,99.99
2017-02-01T09:08:00.323Z,99.99
2017-02-01T09:08:59.928Z,99.99
2017-02-01T09:09:59.915Z,99.99
2017-02-01T09:10:59.925Z,99.99
2017-02-01T09:11:59.893Z,99.99
2017-02-01T09:12:59.865Z,99.99
2017-02-01T09:13:59.456Z,99.99
2017-02-01T09:14:59.835Z,99.99
2017-02-01T09:15:59.823Z,99.99
2017-02-01T09:16:59.805Z,99.99
2017-02-01T09:17:59.792Z,99.99
2017-02-01T09:18:59.812Z,99.99
2017-02-01T09:19:59.758Z,99.99
2017-02-01T09:20:59.740Z,99.99
2017-02-01T09:21:59.728Z,99.99
2017-02-01T09:22:59.715Z,99.99
2017-02-01T09:23:59.704Z,99.99
2017-02-01T09:24:59.681Z,99.99
2017-02-01T09:25:59.668Z,99.99
2017-02-01T09:26:59.650Z,99.99
2017-02-01T09:27:59.635Z,99.99
2017-02-01T09:28:59.623Z,99.99
2017-02-01T09:29:59.609Z,99.99
2017-02-01T09:30:59.596Z,99.99
2017-02-01T09:31:59.575Z,99.99
2017-02-01T09:32:59.565Z,99.99
2017-02-01T09:33:59.548Z,99.99
2017-02-01T09:34:59.533Z,99.99
2017-02-01T09:35:59.517Z,99.99
2017-02-01T09:36:59.505Z,99.99
2017-02-01T09:37:59.489Z,99.99
2017-02-01T09:38:59.473Z,99.99
2017-02-01T09:39:59.485Z,99.99
2017-02-01T09:40:59.440Z,99.99
2017-02-01T09:41:59.453Z,99.99
2017-02-01T09:42:59.416Z,99.99
2017-02-01T09:43:59.399Z,99.99
2017-02-01T09:44:58.988Z,99.99
2017-02-01T09:45:59.370Z,99.99
2017-02-01T09:46:59.352Z,99.99
2017-02-01T09:47:59.343Z,99.99
2017-02-01T09:48:59.326Z,99.99
2017-02-01T09:49:59.310Z,99.99
2017-02-01T09:50:59.296Z,99.99
2017-02-01T09:51:59.287Z,99.99
2017-02-01T09:52:59.270Z,99.99
2017-02-01T09:53:59.255Z,99.99
2017-02-01T09:54:59.239Z,99.99
2017-02-01T09:55:59.225Z,99.99
2017-02-01T09:56:59.211Z,99.99
2017-02-01T09:57:59.193Z,99.99
2017-02-01T09:58:59.182Z,99.99
2017-02-01T09:59:59.170Z,99.99
2017-02-01T10:00:59.154Z,99.99
2017-02-01T10:01:59.138Z,99.99
2017-02-01T10:02:59.123Z,99.99
2017-02-01T10:03:59.110Z,99.99
2017-02-01T10:04:59.098Z,99.99
2017-02-01T10:05:59.091Z,99.99
2017-02-01T10:06:59.069Z,99.99
2017-02-01T10:07:59.051Z,99.99
2017-02-01T10:08:59.051Z,99.99
2017-02-01T10:09:59.027Z,99.99
2017-02-01T10:10:59.015Z,99.99
2017-02-01T10:11:58.597Z,99.99
2017-02-01T10:12:58.985Z,99.99
2017-02-01T10:13:58.995Z,99.99
2017-02-01T10:14:58.952Z,99.99
2017-02-01T10:15:58.938Z,99.99
2017-02-01T10:16:58.925Z,99.99
2017-02-01T10:17:58.914Z,99.99
2017-02-01T10:18:58.895Z,99.99
2017-02-01T10:19:58.881Z,99.99
2017-02-01T10:20:58.866Z,99.99
2017-02-01T10:21:58.854Z,99.99
2017-02-01T10:22:58.838Z,99.99
2017-02-01T10:23:58.823Z,99.99
2017-02-01T10:24:58.810Z,99.99
2017-02-01T10:25:58.800Z,99.99
2017-02-01T10:26:58.790Z,99.99
2017-02-01T10:27:58.768Z,99.99
2017-02-01T10:28:58.754Z,99.99
2017-02-01T10:29:58.740Z,99.99
2017-02-01T10:30:58.722Z,99.99
2017-02-01T10:31:58.709Z,99.99
2017-02-01T10:32:58.698Z,99.99
2017-02-01T10:33:58.683Z,99.99
2017-02-01T10:34:58.670Z,99.99
2017-02-01T10:35:58.655Z,99.99
2017-02-01T10:36:58.639Z,99.99
2017-02-01T10:37:58.624Z,99.99
2017-02-01T10:38:58.613Z,99.99
2017-02-01T10:39:58.598Z,99.99
2017-02-01T10:40:58.582Z,99.99
2017-02-01T10:41:58.571Z,99.99
2017-02-01T10:42:58.560Z,99.99
2017-02-01T10:43:58.540Z,99.99
2017-02-01T10:44:58.535Z,99.99
2017-02-01T10:45:58.515Z,99.99
2017-02-01T10:46:58.502Z,99.99
2017-02-01T10:47:58.486Z,99.99
2017-02-01T10:48:58.472Z,99.99
2017-02-01T10:49:58.457Z,99.99
2017-02-01T10:50:58.453Z,99.99
2017-02-01T10:51:58.461Z,99.99
2017-02-01T10:52:58.417Z,99.99
2017-02-01T10:53:58.405Z,99.99
2017-02-01T10:54:58.390Z,99.99
2017-02-01T10:55:58.374Z,99.99
2017-02-01T10:56:58.363Z,99.99
2017-02-01T10:57:58.352Z,99.99
2017-02-01T10:58:58.335Z,99.99
2017-02-01T10:59:57.931Z,99.99
2017-02-01T11:00:57.912Z,99.99
2017-02-01T11:01:58.296Z,99.99
2017-02-01T11:02:58.282Z,99.99
2017-02-01T11:03:58.269Z,99.99
2017-02-01T11:04:58.255Z,99.99
2017-02-01T11:05:58.241Z,99.99
2017-02-01T11:06:58.232Z,99.99
2017-02-01T11:07:58.219Z,99.99
2017-02-01T11:08:58.204Z,99.99
2017-02-01T11:09:57.794Z,99.99
2017-02-01T11:10:58.181Z,99.99
2017-02-01T11:11:58.165Z,99.99
2017-02-01T11:12:58.152Z,99.99
2017-02-01T11:13:58.167Z,99.99
2017-02-01T11:14:58.137Z,99.99
2017-02-01T11:15:58.113Z,99.99
2017-02-01T11:16:58.102Z,99.99
2017-02-01T11:17:58.088Z,99.99
2017-02-01T11:18:58.075Z,99.99
2017-02-01T11:19:58.064Z,99.99
2017-02-01T11:20:58.051Z,99.99
2017-02-01T11:21:58.039Z,99.99
2017-02-01T11:22:58.022Z,99.99
2017-02-01T11:23:58.012Z,99.99
2017-02-01T11:24:57.997Z,99.99
2017-02-01T11:25:57.986Z,99.99
2017-02-01T11:26:57.974Z,99.99
2017-02-01T11:27:57.963Z,99.99
2017-02-01T11:28:57.551Z,99.99
2017-02-01T11:29:57.618Z,99.99
2017-02-01T11:30:57.924Z,99.99
2017-02-01T11:31:57.913Z,99.99
2017-02-01T11:32:57.901Z,99.99
2017-02-01T11:33:57.886Z,99.99
2017-02-01T11:34:57.874Z,99.99
2017-02-01T11:35:57.862Z,99.99
2017-02-01T11:36:57.851Z,99.99
2017-02-01T11:37:57.840Z,99.99
2017-02-01T11:38:57.825Z,99.99
2017-02-01T11:39:57.811Z,99.99
2017-02-01T11:40:57.798Z,99.99
2017-02-01T11:41:57.793Z,99.99
2017-02-01T11:42:57.773Z,99.99
2017-02-01T11:43:57.762Z,99.99
2017-02-01T11:44:57.750Z,99.99
2017-02-01T11:45:57.739Z,99.99
2017-02-01T11:46:57.724Z,99.99
2017-02-01T11:47:57.714Z,99.99
2017-02-01T11:48:57.731Z,99.99
2017-02-01T11:49:57.687Z,99.99
2017-02-01T11:50:57.674Z,99.99
2017-02-01T11:51:57.665Z,99.99
2017-02-01T11:52:57.656Z,99.99
2017-02-01T11:53:57.640Z,99.99
2017-02-01T11:54:57.630Z,99.99
2017-02-01T11:55:57.616Z,99.99
2017-02-01T11:56:57.604Z,99.99
2017-02-01T11:57:57.591Z,99.99
2017-02-01T11:58:57.581Z,99.99
2017-02-01T11:59:57.568Z,99.99
2017-02-01T12:00:57.554Z,99.99
2017-02-01T12:01:57.541Z,99.99
2017-02-01T12:02:57.531Z,99.99
2017-02-01T12:03:57.518Z,99.99
2017-02-01T12:04:57.107Z,99.99
2017-02-01T12:05:57.491Z,99.99
2017-02-01T12:06:57.480Z,99.99
2017-02-01T12:07:57.467Z,99.99
2017-02-01T12:08:57.456Z,99.99
2017-02-01T12:09:57.444Z,99.99
2017-02-01T12:10:57.430Z,99.99
2017-02-01T12:11:57.419Z,99.99
2017-02-01T12:12:57.406Z,99.99
2017-02-01T12:13:57.400Z,99.99
2017-02-01T12:14:57.384Z,99.99
2017-02-01T12:15:57.368Z,99.99
2017-02-01T12:16:56.961Z,99.99
2017-02-01T12:17:57.346Z,99.99
2017-02-01T12:18:57.334Z,99.99
2017-02-01T12:19:57.338Z,99.99
2017-02-01T12:20:56.912Z,99.99
2017-02-01T12:21:57.296Z,99.99
2017-02-01T12:22:57.284Z,99.99
2017-02-01T12:23:57.305Z,99.99
2017-02-01T12:24:57.289Z,99.99
2017-02-01T12:25:57.248Z,99.99
2017-02-01T12:26:57.234Z,99.99
2017-02-01T12:27:57.228Z,99.99
2017-02-01T12:28:57.214Z,99.99
2017-02-01T12:29:57.198Z,99.99
2017-02-01T12:30:57.186Z,99.99
2017-02-01T12:31:57.177Z,99.99
2017-02-01T12:32:57.167Z,99.99
2017-02-01T12:33:57.155Z,99.99
2017-02-01T12:34:57.137Z,99.99
2017-02-01T12:35:57.125Z,99.99
2017-02-01T12:36:57.114Z,99.99
2017-02-01T12:37:57.102Z,99.99
2017-02-01T12:38:57.089Z,99.99
2017-02-01T12:39:57.076Z,99.99
2017-02-01T12:40:56.670Z,99.99
2017-02-01T12:41:57.053Z,99.99
2017-02-01T12:42:57.039Z,99.99
2017-02-01T12:43:57.029Z,99.99
2017-02-01T12:44:57.024Z,99.99
2017-02-01T12:45:57.007Z,99.99
2017-02-01T12:46:56.992Z,99.99
2017-02-01T12:47:56.979Z,99.99
2017-02-01T12:48:56.971Z,99.99
2017-02-01T12:49:56.953Z,99.99
2017-02-01T12:50:56.976Z,99.99
2017-02-01T12:51:56.928Z,99.99
2017-02-01T12:52:56.919Z,99.99
2017-02-01T12:53:56.905Z,99.99
2017-02-01T12:54:56.890Z,99.99